sensor_id;sensor_type;location;lat;lon;timestamp;P1;durP1;ratioP1;P2;durP2;ratioP2
37455;SDS011;23316;50.718;7.328;2022-07-29T00:01:47;3.20;;;1.27;;
37455;SDS011;23316;50.718;7.328;2022-07-29T00:04:14;3.00;;;1.20;;
37455;SDS011;23316;50.718;7.328;2022-07-29T00:06:42;4.88;;;1.27;;
37455;SDS011;23316;50.718;7.328;2022-07-29T00:09:09;1.98;;;1.10;;
37455;SDS011;23316;50.718;7.328;2022-07-29T00:11:36;4.75;;;1.48;;
37455;SDS011;23316;50.718;7.328;2022-07-29T00:14:05;2.50;;;1.30;;
37455;SDS011;23316;50.718;7.328;2022-07-29T00:16:32;2.53;;;1.35;;
37455;SDS011;23316;50.718;7.328;2022-07-29T00:18:59;3.83;;;1.30;;
37455;SDS011;23316;50.718;7.328;2022-07-29T00:21:27;2.53;;;1.10;;
37455;SDS011;23316;50.718;7.328;2022-07-29T00:23:54;4.93;;;1.30;;
37455;SDS011;23316;50.718;7.328;2022-07-29T00:26:21;4.10;;;1.50;;
37455;SDS011;23316;50.718;7.328;2022-07-29T00:28:48;2.08;;;1.08;;
37455;SDS011;23316;50.718;7.328;2022-07-29T00:31:17;2.78;;;1.40;;
37455;SDS011;23316;50.718;7.328;2022-07-29T00:33:44;2.67;;;1.25;;
37455;SDS011;23316;50.718;7.328;2022-07-29T00:36:11;2.00;;;1.35;;
37455;SDS011;23316;50.718;7.328;2022-07-29T00:38:37;2.38;;;1.40;;
37455;SDS011;23316;50.718;7.328;2022-07-29T00:41:06;2.55;;;1.10;;
37455;SDS011;23316;50.718;7.328;2022-07-29T00:43:34;3.10;;;1.20;;
37455;SDS011;23316;50.718;7.328;2022-07-29T00:46:01;2.95;;;1.40;;
37455;SDS011;23316;50.718;7.328;2022-07-29T00:48:29;3.10;;;1.27;;
37455;SDS011;23316;50.718;7.328;2022-07-29T00:50:57;1.83;;;1.20;;
37455;SDS011;23316;50.718;7.328;2022-07-29T00:53:25;5.00;;;1.25;;
37455;SDS011;23316;50.718;7.328;2022-07-29T00:55:53;3.60;;;1.58;;
37455;SDS011;23316;50.718;7.328;2022-07-29T00:58:21;2.60;;;1.40;;
37455;SDS011;23316;50.718;7.328;2022-07-29T01:00:48;3.47;;;1.13;;
37455;SDS011;23316;50.718;7.328;2022-07-29T01:03:15;2.92;;;1.13;;
37455;SDS011;23316;50.718;7.328;2022-07-29T01:05:44;3.95;;;1.50;;
37455;SDS011;23316;50.718;7.328;2022-07-29T01:08:13;4.35;;;1.88;;
37455;SDS011;23316;50.718;7.328;2022-07-29T01:10:44;4.30;;;1.50;;
37455;SDS011;23316;50.718;7.328;2022-07-29T01:13:12;3.08;;;1.40;;
37455;SDS011;23316;50.718;7.328;2022-07-29T01:15:43;3.63;;;1.30;;
37455;SDS011;23316;50.718;7.328;2022-07-29T01:18:14;2.78;;;1.52;;
37455;SDS011;23316;50.718;7.328;2022-07-29T01:20:52;2.45;;;1.20;;
37455;SDS011;23316;50.718;7.328;2022-07-29T01:23:46;4.18;;;1.33;;
37455;SDS011;23316;50.718;7.328;2022-07-29T01:26:28;3.80;;;1.25;;
37455;SDS011;23316;50.718;7.328;2022-07-29T01:29:06;4.65;;;1.52;;
37455;SDS011;23316;50.718;7.328;2022-07-29T01:31:41;5.28;;;1.35;;
37455;SDS011;23316;50.718;7.328;2022-07-29T01:34:18;2.05;;;1.30;;
37455;SDS011;23316;50.718;7.328;2022-07-29T01:36:50;5.80;;;1.48;;
37455;SDS011;23316;50.718;7.328;2022-07-29T01:39:23;2.08;;;1.33;;
37455;SDS011;23316;50.718;7.328;2022-07-29T01:41:56;5.70;;;1.42;;
37455;SDS011;23316;50.718;7.328;2022-07-29T01:44:32;2.28;;;1.38;;
37455;SDS011;23316;50.718;7.328;2022-07-29T01:49:36;1.23;;;1.13;;
37455;SDS011;23316;50.718;7.328;2022-07-29T01:52:11;2.97;;;1.40;;
37455;SDS011;23316;50.718;7.328;2022-07-29T01:54:47;3.33;;;1.60;;
37455;SDS011;23316;50.718;7.328;2022-07-29T01:57:18;4.67;;;1.83;;
37455;SDS011;23316;50.718;7.328;2022-07-29T01:59:52;2.33;;;1.15;;
37455;SDS011;23316;50.718;7.328;2022-07-29T02:02:21;2.45;;;1.23;;
37455;SDS011;23316;50.718;7.328;2022-07-29T02:04:49;2.55;;;1.50;;
37455;SDS011;23316;50.718;7.328;2022-07-29T02:07:19;2.78;;;1.30;;
37455;SDS011;23316;50.718;7.328;2022-07-29T02:09:49;5.40;;;2.08;;
37455;SDS011;23316;50.718;7.328;2022-07-29T02:12:18;4.00;;;1.55;;
37455;SDS011;23316;50.718;7.328;2022-07-29T02:14:47;2.13;;;1.35;;
37455;SDS011;23316;50.718;7.328;2022-07-29T02:17:21;4.85;;;1.58;;
37455;SDS011;23316;50.718;7.328;2022-07-29T02:19:51;3.28;;;1.38;;
37455;SDS011;23316;50.718;7.328;2022-07-29T02:22:22;2.83;;;1.50;;
37455;SDS011;23316;50.718;7.328;2022-07-29T02:24:53;2.13;;;1.13;;
37455;SDS011;23316;50.718;7.328;2022-07-29T02:27:21;3.40;;;1.27;;
37455;SDS011;23316;50.718;7.328;2022-07-29T02:29:52;4.35;;;1.50;;
37455;SDS011;23316;50.718;7.328;2022-07-29T02:32:22;3.53;;;1.33;;
37455;SDS011;23316;50.718;7.328;2022-07-29T02:34:52;4.20;;;1.73;;
37455;SDS011;23316;50.718;7.328;2022-07-29T02:37:20;1.73;;;1.20;;
37455;SDS011;23316;50.718;7.328;2022-07-29T02:39:48;3.83;;;1.33;;
37455;SDS011;23316;50.718;7.328;2022-07-29T02:42:18;2.35;;;1.15;;
37455;SDS011;23316;50.718;7.328;2022-07-29T02:44:49;3.28;;;1.02;;
37455;SDS011;23316;50.718;7.328;2022-07-29T02:47:18;3.45;;;1.52;;
37455;SDS011;23316;50.718;7.328;2022-07-29T02:49:51;3.03;;;1.30;;
37455;SDS011;23316;50.718;7.328;2022-07-29T02:52:22;2.92;;;1.30;;
37455;SDS011;23316;50.718;7.328;2022-07-29T02:54:54;3.05;;;1.27;;
37455;SDS011;23316;50.718;7.328;2022-07-29T02:57:28;4.07;;;1.42;;
37455;SDS011;23316;50.718;7.328;2022-07-29T03:00:00;2.42;;;1.40;;
37455;SDS011;23316;50.718;7.328;2022-07-29T03:02:32;4.65;;;1.45;;
37455;SDS011;23316;50.718;7.328;2022-07-29T03:05:04;2.28;;;1.15;;
37455;SDS011;23316;50.718;7.328;2022-07-29T03:07:33;5.78;;;1.40;;
37455;SDS011;23316;50.718;7.328;2022-07-29T03:10:02;2.50;;;1.05;;
37455;SDS011;23316;50.718;7.328;2022-07-29T03:12:30;1.83;;;1.10;;
37455;SDS011;23316;50.718;7.328;2022-07-29T03:14:58;1.73;;;1.00;;
37455;SDS011;23316;50.718;7.328;2022-07-29T03:17:27;4.40;;;1.10;;
37455;SDS011;23316;50.718;7.328;2022-07-29T03:19:55;2.15;;;1.30;;
37455;SDS011;23316;50.718;7.328;2022-07-29T03:22:24;3.92;;;1.40;;
37455;SDS011;23316;50.718;7.328;2022-07-29T03:24:51;7.65;;;3.45;;
37455;SDS011;23316;50.718;7.328;2022-07-29T03:27:18;3.15;;;1.85;;
37455;SDS011;23316;50.718;7.328;2022-07-29T03:29:45;4.60;;;1.60;;
37455;SDS011;23316;50.718;7.328;2022-07-29T03:32:13;2.15;;;1.13;;
37455;SDS011;23316;50.718;7.328;2022-07-29T03:34:40;2.38;;;1.30;;
37455;SDS011;23316;50.718;7.328;2022-07-29T03:37:07;3.90;;;1.50;;
37455;SDS011;23316;50.718;7.328;2022-07-29T03:39:36;1.95;;;1.45;;
37455;SDS011;23316;50.718;7.328;2022-07-29T03:42:07;3.92;;;1.48;;
37455;SDS011;23316;50.718;7.328;2022-07-29T03:44:38;3.63;;;1.70;;
37455;SDS011;23316;50.718;7.328;2022-07-29T03:47:08;3.72;;;1.55;;
37455;SDS011;23316;50.718;7.328;2022-07-29T03:49:37;2.72;;;1.42;;
37455;SDS011;23316;50.718;7.328;2022-07-29T03:52:06;4.88;;;1.55;;
37455;SDS011;23316;50.718;7.328;2022-07-29T03:54:35;10.40;;;2.30;;
37455;SDS011;23316;50.718;7.328;2022-07-29T03:57:03;3.45;;;1.65;;
37455;SDS011;23316;50.718;7.328;2022-07-29T03:59:33;5.25;;;1.50;;
37455;SDS011;23316;50.718;7.328;2022-07-29T04:02:01;7.93;;;1.17;;
37455;SDS011;23316;50.718;7.328;2022-07-29T04:04:32;2.17;;;1.17;;
37455;SDS011;23316;50.718;7.328;2022-07-29T04:06:59;2.55;;;1.13;;
37455;SDS011;23316;50.718;7.328;2022-07-29T04:09:27;3.00;;;1.20;;
37455;SDS011;23316;50.718;7.328;2022-07-29T04:11:56;7.80;;;1.52;;
37455;SDS011;23316;50.718;7.328;2022-07-29T04:14:23;4.13;;;1.73;;
37455;SDS011;23316;50.718;7.328;2022-07-29T04:16:50;3.00;;;1.42;;
37455;SDS011;23316;50.718;7.328;2022-07-29T04:19:18;2.70;;;1.30;;
37455;SDS011;23316;50.718;7.328;2022-07-29T04:21:45;2.28;;;1.05;;
37455;SDS011;23316;50.718;7.328;2022-07-29T04:24:12;3.15;;;1.52;;
37455;SDS011;23316;50.718;7.328;2022-07-29T04:26:40;3.88;;;1.30;;
37455;SDS011;23316;50.718;7.328;2022-07-29T04:29:08;2.20;;;1.20;;
37455;SDS011;23316;50.718;7.328;2022-07-29T04:31:37;4.88;;;1.15;;
37455;SDS011;23316;50.718;7.328;2022-07-29T04:34:04;4.47;;;2.08;;
37455;SDS011;23316;50.718;7.328;2022-07-29T04:36:31;5.30;;;1.92;;
37455;SDS011;23316;50.718;7.328;2022-07-29T04:38:59;4.63;;;1.88;;
37455;SDS011;23316;50.718;7.328;2022-07-29T04:41:26;4.50;;;1.50;;
37455;SDS011;23316;50.718;7.328;2022-07-29T04:43:54;2.92;;;1.58;;
37455;SDS011;23316;50.718;7.328;2022-07-29T04:46:22;4.30;;;1.77;;
37455;SDS011;23316;50.718;7.328;2022-07-29T04:48:49;3.92;;;1.30;;
37455;SDS011;23316;50.718;7.328;2022-07-29T04:51:17;7.55;;;1.70;;
37455;SDS011;23316;50.718;7.328;2022-07-29T04:53:44;7.80;;;2.05;;
37455;SDS011;23316;50.718;7.328;2022-07-29T04:56:11;1.70;;;1.48;;
37455;SDS011;23316;50.718;7.328;2022-07-29T04:58:38;7.75;;;2.28;;
37455;SDS011;23316;50.718;7.328;2022-07-29T05:01:06;3.83;;;1.35;;
37455;SDS011;23316;50.718;7.328;2022-07-29T05:03:34;3.35;;;1.50;;
37455;SDS011;23316;50.718;7.328;2022-07-29T05:06:02;4.72;;;1.88;;
37455;SDS011;23316;50.718;7.328;2022-07-29T05:08:29;2.90;;;1.70;;
37455;SDS011;23316;50.718;7.328;2022-07-29T05:10:57;2.85;;;1.30;;
37455;SDS011;23316;50.718;7.328;2022-07-29T05:13:24;3.70;;;1.58;;
37455;SDS011;23316;50.718;7.328;2022-07-29T05:15:51;4.05;;;1.38;;
37455;SDS011;23316;50.718;7.328;2022-07-29T05:18:18;3.90;;;1.73;;
37455;SDS011;23316;50.718;7.328;2022-07-29T05:20:47;6.35;;;1.85;;
37455;SDS011;23316;50.718;7.328;2022-07-29T05:23:14;6.80;;;2.20;;
37455;SDS011;23316;50.718;7.328;2022-07-29T05:25:41;8.20;;;1.80;;
37455;SDS011;23316;50.718;7.328;2022-07-29T05:28:08;2.92;;;1.38;;
37455;SDS011;23316;50.718;7.328;2022-07-29T05:30:36;4.57;;;1.60;;
37455;SDS011;23316;50.718;7.328;2022-07-29T05:33:03;2.10;;;1.20;;
37455;SDS011;23316;50.718;7.328;2022-07-29T05:35:30;2.70;;;1.60;;
37455;SDS011;23316;50.718;7.328;2022-07-29T05:37:59;6.05;;;1.70;;
37455;SDS011;23316;50.718;7.328;2022-07-29T05:40:26;5.68;;;1.50;;
37455;SDS011;23316;50.718;7.328;2022-07-29T05:42:53;3.65;;;1.38;;
37455;SDS011;23316;50.718;7.328;2022-07-29T05:45:20;2.47;;;1.50;;
37455;SDS011;23316;50.718;7.328;2022-07-29T05:47:48;3.83;;;1.60;;
37455;SDS011;23316;50.718;7.328;2022-07-29T05:50:16;3.22;;;1.50;;
37455;SDS011;23316;50.718;7.328;2022-07-29T05:52:43;6.50;;;1.50;;
37455;SDS011;23316;50.718;7.328;2022-07-29T05:55:12;7.93;;;1.75;;
37455;SDS011;23316;50.718;7.328;2022-07-29T05:57:39;7.60;;;1.85;;
37455;SDS011;23316;50.718;7.328;2022-07-29T06:00:06;4.35;;;1.77;;
37455;SDS011;23316;50.718;7.328;2022-07-29T06:02:34;5.28;;;1.90;;
37455;SDS011;23316;50.718;7.328;2022-07-29T06:05:02;3.97;;;2.00;;
37455;SDS011;23316;50.718;7.328;2022-07-29T06:07:29;3.78;;;1.55;;
37455;SDS011;23316;50.718;7.328;2022-07-29T06:09:58;4.82;;;2.03;;
37455;SDS011;23316;50.718;7.328;2022-07-29T06:12:26;3.72;;;1.65;;
37455;SDS011;23316;50.718;7.328;2022-07-29T06:14:53;9.50;;;1.83;;
37455;SDS011;23316;50.718;7.328;2022-07-29T06:17:20;4.80;;;2.30;;
37455;SDS011;23316;50.718;7.328;2022-07-29T06:19:48;5.55;;;2.25;;
37455;SDS011;23316;50.718;7.328;2022-07-29T06:22:15;6.93;;;1.88;;
37455;SDS011;23316;50.718;7.328;2022-07-29T06:24:43;6.05;;;2.30;;
37455;SDS011;23316;50.718;7.328;2022-07-29T06:30:39;7.82;;;3.05;;
37455;SDS011;23316;50.718;7.328;2022-07-29T06:43:05;6.18;;;2.20;;
37455;SDS011;23316;50.718;7.328;2022-07-29T06:45:33;8.88;;;2.50;;
37455;SDS011;23316;50.718;7.328;2022-07-29T06:48:02;11.27;;;2.50;;
37455;SDS011;23316;50.718;7.328;2022-07-29T06:50:29;5.88;;;2.10;;
37455;SDS011;23316;50.718;7.328;2022-07-29T06:52:56;8.77;;;2.28;;
37455;SDS011;23316;50.718;7.328;2022-07-29T06:55:23;5.47;;;2.00;;
37455;SDS011;23316;50.718;7.328;2022-07-29T06:57:52;9.65;;;2.60;;
37455;SDS011;23316;50.718;7.328;2022-07-29T07:00:19;8.95;;;2.35;;
37455;SDS011;23316;50.718;7.328;2022-07-29T07:02:46;4.18;;;1.77;;
37455;SDS011;23316;50.718;7.328;2022-07-29T07:05:15;5.28;;;1.80;;
37455;SDS011;23316;50.718;7.328;2022-07-29T07:07:42;5.05;;;2.33;;
37455;SDS011;23316;50.718;7.328;2022-07-29T07:10:09;9.55;;;2.50;;
37455;SDS011;23316;50.718;7.328;2022-07-29T07:12:37;9.60;;;2.05;;
37455;SDS011;23316;50.718;7.328;2022-07-29T07:15:05;6.40;;;2.08;;
37455;SDS011;23316;50.718;7.328;2022-07-29T07:17:33;9.05;;;2.30;;
37455;SDS011;23316;50.718;7.328;2022-07-29T07:20:00;6.63;;;2.35;;
37455;SDS011;23316;50.718;7.328;2022-07-29T07:22:28;6.20;;;2.20;;
37455;SDS011;23316;50.718;7.328;2022-07-29T07:24:56;9.30;;;2.40;;
37455;SDS011;23316;50.718;7.328;2022-07-29T07:27:23;6.90;;;1.88;;
37455;SDS011;23316;50.718;7.328;2022-07-29T07:29:50;10.90;;;2.47;;
37455;SDS011;23316;50.718;7.328;2022-07-29T07:32:17;6.80;;;2.20;;
37455;SDS011;23316;50.718;7.328;2022-07-29T07:34:44;6.65;;;1.80;;
37455;SDS011;23316;50.718;7.328;2022-07-29T07:37:12;8.00;;;2.60;;
37455;SDS011;23316;50.718;7.328;2022-07-29T07:39:41;13.35;;;1.85;;
37455;SDS011;23316;50.718;7.328;2022-07-29T07:42:08;6.00;;;2.00;;
37455;SDS011;23316;50.718;7.328;2022-07-29T07:44:38;8.55;;;2.20;;
37455;SDS011;23316;50.718;7.328;2022-07-29T07:47:05;5.68;;;1.85;;
37455;SDS011;23316;50.718;7.328;2022-07-29T07:49:32;7.40;;;1.63;;
37455;SDS011;23316;50.718;7.328;2022-07-29T07:51:59;9.98;;;2.05;;
37455;SDS011;23316;50.718;7.328;2022-07-29T07:54:27;6.55;;;2.15;;
37455;SDS011;23316;50.718;7.328;2022-07-29T07:56:55;8.43;;;2.33;;
37455;SDS011;23316;50.718;7.328;2022-07-29T07:59:23;9.40;;;2.28;;
37455;SDS011;23316;50.718;7.328;2022-07-29T08:01:50;4.22;;;1.50;;
37455;SDS011;23316;50.718;7.328;2022-07-29T08:04:17;8.43;;;2.00;;
37455;SDS011;23316;50.718;7.328;2022-07-29T08:06:44;8.95;;;2.25;;
37455;SDS011;23316;50.718;7.328;2022-07-29T08:09:12;7.70;;;2.05;;
37455;SDS011;23316;50.718;7.328;2022-07-29T08:11:39;5.53;;;1.70;;
37455;SDS011;23316;50.718;7.328;2022-07-29T08:14:07;6.45;;;1.88;;
37455;SDS011;23316;50.718;7.328;2022-07-29T08:16:34;7.63;;;2.05;;
37455;SDS011;23316;50.718;7.328;2022-07-29T08:19:02;5.05;;;1.92;;
37455;SDS011;23316;50.718;7.328;2022-07-29T08:21:29;4.63;;;1.83;;
37455;SDS011;23316;50.718;7.328;2022-07-29T08:23:56;7.40;;;1.70;;
37455;SDS011;23316;50.718;7.328;2022-07-29T08:26:37;5.50;;;1.90;;
37455;SDS011;23316;50.718;7.328;2022-07-29T08:29:04;11.93;;;2.50;;
37455;SDS011;23316;50.718;7.328;2022-07-29T08:31:33;7.38;;;2.20;;
37455;SDS011;23316;50.718;7.328;2022-07-29T08:34:00;8.85;;;2.15;;
37455;SDS011;23316;50.718;7.328;2022-07-29T08:36:28;4.55;;;1.65;;
37455;SDS011;23316;50.718;7.328;2022-07-29T08:38:55;4.43;;;1.98;;
37455;SDS011;23316;50.718;7.328;2022-07-29T08:41:22;4.35;;;1.60;;
37455;SDS011;23316;50.718;7.328;2022-07-29T08:43:50;5.13;;;1.90;;
37455;SDS011;23316;50.718;7.328;2022-07-29T08:46:17;4.00;;;1.88;;
37455;SDS011;23316;50.718;7.328;2022-07-29T08:48:46;5.47;;;2.20;;
37455;SDS011;23316;50.718;7.328;2022-07-29T08:51:14;5.20;;;1.80;;
37455;SDS011;23316;50.718;7.328;2022-07-29T08:53:44;10.40;;;1.90;;
37455;SDS011;23316;50.718;7.328;2022-07-29T08:56:14;4.75;;;1.90;;
37455;SDS011;23316;50.718;7.328;2022-07-29T08:58:42;3.40;;;1.80;;
37455;SDS011;23316;50.718;7.328;2022-07-29T09:01:10;3.92;;;1.60;;
37455;SDS011;23316;50.718;7.328;2022-07-29T09:03:40;5.25;;;2.05;;
37455;SDS011;23316;50.718;7.328;2022-07-29T09:06:11;3.17;;;1.40;;
37455;SDS011;23316;50.718;7.328;2022-07-29T09:08:39;3.20;;;1.58;;
37455;SDS011;23316;50.718;7.328;2022-07-29T09:11:07;12.10;;;2.42;;
37455;SDS011;23316;50.718;7.328;2022-07-29T09:13:35;5.65;;;1.75;;
37455;SDS011;23316;50.718;7.328;2022-07-29T09:16:03;8.02;;;1.77;;
37455;SDS011;23316;50.718;7.328;2022-07-29T09:18:34;6.18;;;1.52;;
37455;SDS011;23316;50.718;7.328;2022-07-29T09:21:02;5.25;;;1.85;;
37455;SDS011;23316;50.718;7.328;2022-07-29T09:24:03;5.60;;;2.28;;
37455;SDS011;23316;50.718;7.328;2022-07-29T09:26:32;5.15;;;1.95;;
37455;SDS011;23316;50.718;7.328;2022-07-29T09:29:07;4.80;;;2.20;;
37455;SDS011;23316;50.718;7.328;2022-07-29T09:31:35;5.88;;;2.40;;
37455;SDS011;23316;50.718;7.328;2022-07-29T09:34:04;6.30;;;2.03;;
37455;SDS011;23316;50.718;7.328;2022-07-29T09:36:38;3.67;;;2.00;;
37455;SDS011;23316;50.718;7.328;2022-07-29T09:39:07;5.17;;;2.00;;
37455;SDS011;23316;50.718;7.328;2022-07-29T09:41:44;5.07;;;1.58;;
37455;SDS011;23316;50.718;7.328;2022-07-29T09:44:12;4.32;;;2.20;;
37455;SDS011;23316;50.718;7.328;2022-07-29T09:46:40;3.47;;;1.90;;
37455;SDS011;23316;50.718;7.328;2022-07-29T09:49:18;3.80;;;1.70;;
37455;SDS011;23316;50.718;7.328;2022-07-29T09:51:45;9.85;;;1.77;;
37455;SDS011;23316;50.718;7.328;2022-07-29T09:54:23;4.97;;;1.88;;
37455;SDS011;23316;50.718;7.328;2022-07-29T09:56:51;3.85;;;1.70;;
37455;SDS011;23316;50.718;7.328;2022-07-29T09:59:19;5.00;;;1.95;;
37455;SDS011;23316;50.718;7.328;2022-07-29T10:01:49;5.55;;;1.50;;
37455;SDS011;23316;50.718;7.328;2022-07-29T10:04:16;5.63;;;1.98;;
37455;SDS011;23316;50.718;7.328;2022-07-29T10:06:57;3.47;;;1.83;;
37455;SDS011;23316;50.718;7.328;2022-07-29T10:09:27;3.72;;;1.52;;
37455;SDS011;23316;50.718;7.328;2022-07-29T10:12:08;6.65;;;2.03;;
37455;SDS011;23316;50.718;7.328;2022-07-29T10:14:37;6.75;;;2.10;;
37455;SDS011;23316;50.718;7.328;2022-07-29T10:17:05;5.32;;;1.98;;
37455;SDS011;23316;50.718;7.328;2022-07-29T10:19:33;4.10;;;1.85;;
37455;SDS011;23316;50.718;7.328;2022-07-29T10:22:03;3.47;;;1.77;;
37455;SDS011;23316;50.718;7.328;2022-07-29T10:24:32;4.28;;;1.85;;
37455;SDS011;23316;50.718;7.328;2022-07-29T10:27:01;3.85;;;2.10;;
37455;SDS011;23316;50.718;7.328;2022-07-29T10:29:29;7.65;;;2.00;;
37455;SDS011;23316;50.718;7.328;2022-07-29T10:32:00;3.85;;;1.92;;
37455;SDS011;23316;50.718;7.328;2022-07-29T10:35:06;3.22;;;1.77;;
37455;SDS011;23316;50.718;7.328;2022-07-29T10:37:46;4.47;;;2.10;;
37455;SDS011;23316;50.718;7.328;2022-07-29T10:40:32;5.40;;;2.40;;
37455;SDS011;23316;50.718;7.328;2022-07-29T10:43:27;4.43;;;2.00;;
37455;SDS011;23316;50.718;7.328;2022-07-29T10:45:59;2.35;;;1.52;;
37455;SDS011;23316;50.718;7.328;2022-07-29T10:48:27;3.20;;;1.63;;
37455;SDS011;23316;50.718;7.328;2022-07-29T10:50:55;3.88;;;1.75;;
37455;SDS011;23316;50.718;7.328;2022-07-29T10:53:24;7.00;;;1.80;;
37455;SDS011;23316;50.718;7.328;2022-07-29T10:56:23;5.85;;;1.88;;
37455;SDS011;23316;50.718;7.328;2022-07-29T11:01:51;3.72;;;1.63;;
37455;SDS011;23316;50.718;7.328;2022-07-29T11:12:48;6.00;;;2.20;;
37455;SDS011;23316;50.718;7.328;2022-07-29T11:15:17;8.80;;;2.50;;
37455;SDS011;23316;50.718;7.328;2022-07-29T11:18:06;4.05;;;2.00;;
37455;SDS011;23316;50.718;7.328;2022-07-29T11:20:34;5.60;;;2.30;;
37455;SDS011;23316;50.718;7.328;2022-07-29T11:28:48;4.57;;;1.92;;
37455;SDS011;23316;50.718;7.328;2022-07-29T11:31:19;4.78;;;2.10;;
37455;SDS011;23316;50.718;7.328;2022-07-29T11:39:43;7.50;;;2.35;;
37455;SDS011;23316;50.718;7.328;2022-07-29T11:45:10;6.60;;;2.35;;
37455;SDS011;23316;50.718;7.328;2022-07-29T11:47:39;7.32;;;2.35;;
37455;SDS011;23316;50.718;7.328;2022-07-29T11:50:08;5.30;;;2.20;;
37455;SDS011;23316;50.718;7.328;2022-07-29T11:52:38;6.68;;;2.40;;
37455;SDS011;23316;50.718;7.328;2022-07-29T11:55:11;9.70;;;2.50;;
37455;SDS011;23316;50.718;7.328;2022-07-29T11:57:47;7.90;;;2.03;;
37455;SDS011;23316;50.718;7.328;2022-07-29T12:00:23;11.02;;;2.63;;
37455;SDS011;23316;50.718;7.328;2022-07-29T12:02:55;5.75;;;1.98;;
37455;SDS011;23316;50.718;7.328;2022-07-29T12:05:30;6.60;;;2.25;;
37455;SDS011;23316;50.718;7.328;2022-07-29T12:08:06;7.03;;;2.17;;
37455;SDS011;23316;50.718;7.328;2022-07-29T12:10:34;6.15;;;2.47;;
37455;SDS011;23316;50.718;7.328;2022-07-29T12:13:02;8.48;;;2.50;;
37455;SDS011;23316;50.718;7.328;2022-07-29T12:15:30;8.38;;;2.50;;
37455;SDS011;23316;50.718;7.328;2022-07-29T12:17:58;7.53;;;2.63;;
37455;SDS011;23316;50.718;7.328;2022-07-29T12:20:35;13.02;;;2.53;;
37455;SDS011;23316;50.718;7.328;2022-07-29T12:23:04;8.65;;;2.60;;
37455;SDS011;23316;50.718;7.328;2022-07-29T12:25:33;6.57;;;2.55;;
37455;SDS011;23316;50.718;7.328;2022-07-29T12:28:01;7.53;;;2.55;;
37455;SDS011;23316;50.718;7.328;2022-07-29T12:30:38;12.15;;;2.70;;
37455;SDS011;23316;50.718;7.328;2022-07-29T12:33:11;14.45;;;2.97;;
37455;SDS011;23316;50.718;7.328;2022-07-29T12:35:44;9.48;;;2.53;;
37455;SDS011;23316;50.718;7.328;2022-07-29T12:38:12;4.15;;;2.40;;
37455;SDS011;23316;50.718;7.328;2022-07-29T12:40:40;7.25;;;2.58;;
37455;SDS011;23316;50.718;7.328;2022-07-29T12:43:09;5.55;;;2.03;;
37455;SDS011;23316;50.718;7.328;2022-07-29T12:45:41;5.60;;;2.42;;
37455;SDS011;23316;50.718;7.328;2022-07-29T12:48:10;13.07;;;2.58;;
37455;SDS011;23316;50.718;7.328;2022-07-29T12:50:51;9.35;;;2.70;;
37455;SDS011;23316;50.718;7.328;2022-07-29T12:53:20;6.65;;;2.15;;
37455;SDS011;23316;50.718;7.328;2022-07-29T12:55:48;12.05;;;2.72;;
37455;SDS011;23316;50.718;7.328;2022-07-29T12:58:30;7.68;;;2.35;;
37455;SDS011;23316;50.718;7.328;2022-07-29T13:01:04;6.43;;;2.65;;
37455;SDS011;23316;50.718;7.328;2022-07-29T13:03:46;6.53;;;2.47;;
37455;SDS011;23316;50.718;7.328;2022-07-29T13:06:31;6.43;;;2.95;;
37455;SDS011;23316;50.718;7.328;2022-07-29T13:09:01;8.55;;;2.83;;
37455;SDS011;23316;50.718;7.328;2022-07-29T13:11:37;9.23;;;2.40;;
37455;SDS011;23316;50.718;7.328;2022-07-29T13:14:06;7.60;;;2.75;;
37455;SDS011;23316;50.718;7.328;2022-07-29T13:16:36;7.68;;;2.90;;
37455;SDS011;23316;50.718;7.328;2022-07-29T13:19:32;8.00;;;2.42;;
37455;SDS011;23316;50.718;7.328;2022-07-29T13:22:00;10.10;;;2.42;;
37455;SDS011;23316;50.718;7.328;2022-07-29T13:24:28;9.80;;;2.72;;
37455;SDS011;23316;50.718;7.328;2022-07-29T13:26:55;9.10;;;2.30;;
37455;SDS011;23316;50.718;7.328;2022-07-29T13:29:22;6.35;;;2.85;;
37455;SDS011;23316;50.718;7.328;2022-07-29T13:31:53;6.03;;;2.70;;
37455;SDS011;23316;50.718;7.328;2022-07-29T13:34:20;7.65;;;2.97;;
37455;SDS011;23316;50.718;7.328;2022-07-29T13:36:49;6.45;;;2.50;;
37455;SDS011;23316;50.718;7.328;2022-07-29T13:39:17;7.78;;;2.63;;
37455;SDS011;23316;50.718;7.328;2022-07-29T13:41:44;8.23;;;2.17;;
37455;SDS011;23316;50.718;7.328;2022-07-29T13:44:11;5.80;;;2.25;;
37455;SDS011;23316;50.718;7.328;2022-07-29T13:46:38;8.10;;;2.33;;
37455;SDS011;23316;50.718;7.328;2022-07-29T13:49:07;10.18;;;2.78;;
37455;SDS011;23316;50.718;7.328;2022-07-29T13:51:34;6.50;;;2.17;;
37455;SDS011;23316;50.718;7.328;2022-07-29T13:54:01;6.47;;;2.70;;
37455;SDS011;23316;50.718;7.328;2022-07-29T13:56:29;9.60;;;2.55;;
37455;SDS011;23316;50.718;7.328;2022-07-29T13:58:56;6.88;;;2.42;;
37455;SDS011;23316;50.718;7.328;2022-07-29T14:01:23;9.23;;;2.72;;
37455;SDS011;23316;50.718;7.328;2022-07-29T14:03:51;5.20;;;2.22;;
37455;SDS011;23316;50.718;7.328;2022-07-29T14:06:20;8.00;;;3.60;;
37455;SDS011;23316;50.718;7.328;2022-07-29T14:08:47;7.85;;;2.97;;
37455;SDS011;23316;50.718;7.328;2022-07-29T14:11:14;7.90;;;2.90;;
37455;SDS011;23316;50.718;7.328;2022-07-29T14:13:41;10.05;;;3.35;;
37455;SDS011;23316;50.718;7.328;2022-07-29T14:16:08;8.30;;;2.83;;
37455;SDS011;23316;50.718;7.328;2022-07-29T14:18:36;13.10;;;2.65;;
37455;SDS011;23316;50.718;7.328;2022-07-29T14:21:03;17.42;;;3.05;;
37455;SDS011;23316;50.718;7.328;2022-07-29T14:23:31;6.72;;;2.42;;
37455;SDS011;23316;50.718;7.328;2022-07-29T14:25:59;7.40;;;2.50;;
37455;SDS011;23316;50.718;7.328;2022-07-29T14:28:26;11.75;;;3.13;;
37455;SDS011;23316;50.718;7.328;2022-07-29T14:30:54;9.07;;;2.97;;
37455;SDS011;23316;50.718;7.328;2022-07-29T14:33:21;9.80;;;2.75;;
37455;SDS011;23316;50.718;7.328;2022-07-29T14:35:48;10.93;;;2.55;;
37455;SDS011;23316;50.718;7.328;2022-07-29T14:38:16;15.48;;;3.15;;
37455;SDS011;23316;50.718;7.328;2022-07-29T14:40:44;16.38;;;2.75;;
37455;SDS011;23316;50.718;7.328;2022-07-29T14:43:12;9.13;;;2.80;;
37455;SDS011;23316;50.718;7.328;2022-07-29T14:45:40;4.32;;;2.17;;
37455;SDS011;23316;50.718;7.328;2022-07-29T14:48:07;4.35;;;2.50;;
37455;SDS011;23316;50.718;7.328;2022-07-29T14:50:34;7.07;;;2.50;;
37455;SDS011;23316;50.718;7.328;2022-07-29T14:53:01;8.45;;;2.70;;
37455;SDS011;23316;50.718;7.328;2022-07-29T14:55:29;12.68;;;2.70;;
37455;SDS011;23316;50.718;7.328;2022-07-29T14:57:57;5.45;;;2.45;;
37455;SDS011;23316;50.718;7.328;2022-07-29T15:00:25;11.75;;;2.33;;
37455;SDS011;23316;50.718;7.328;2022-07-29T15:02:53;5.20;;;2.30;;
37455;SDS011;23316;50.718;7.328;2022-07-29T15:05:20;7.65;;;2.50;;
37455;SDS011;23316;50.718;7.328;2022-07-29T15:07:47;5.70;;;2.10;;
37455;SDS011;23316;50.718;7.328;2022-07-29T15:10:14;11.10;;;2.20;;
37455;SDS011;23316;50.718;7.328;2022-07-29T15:12:41;8.80;;;2.33;;
37455;SDS011;23316;50.718;7.328;2022-07-29T15:15:10;5.93;;;2.13;;
37455;SDS011;23316;50.718;7.328;2022-07-29T15:17:37;8.05;;;2.03;;
37455;SDS011;23316;50.718;7.328;2022-07-29T15:20:05;7.97;;;2.47;;
37455;SDS011;23316;50.718;7.328;2022-07-29T15:22:32;6.40;;;2.30;;
37455;SDS011;23316;50.718;7.328;2022-07-29T15:25:00;4.18;;;2.70;;
37455;SDS011;23316;50.718;7.328;2022-07-29T15:27:27;6.10;;;2.25;;
37455;SDS011;23316;50.718;7.328;2022-07-29T15:29:54;7.85;;;2.55;;
37455;SDS011;23316;50.718;7.328;2022-07-29T15:32:23;8.48;;;2.55;;
37455;SDS011;23316;50.718;7.328;2022-07-29T15:34:50;7.07;;;2.50;;
37455;SDS011;23316;50.718;7.328;2022-07-29T15:37:17;6.80;;;2.50;;
37455;SDS011;23316;50.718;7.328;2022-07-29T15:39:45;8.10;;;2.47;;
37455;SDS011;23316;50.718;7.328;2022-07-29T15:42:12;7.35;;;3.00;;